Time;durP1;ratioP1;P1;durP2;ratioP2;P2;SDS_P1;SDS_P2;PMS_P1;PMS_P2;Temp;Humidity;BMP_temperature;BMP_pressure;BME280_temperature;BME280_humidity;BME280_pressure;Samples;Min_cycle;Max_cycle;Signal;HPM_P1;HPM_P2
2023/10/19 00:01:07;;;;;;;;;;;;;;;;;;2072738;28;20366;-81
2023/10/19 00:02:26;;;;;;;;;;;;;;;;;;2073238;28;20346;-81
2023/10/19 00:03:45;;;;;;;;;;;;;;;;;;2075522;28;20368;-80
2023/10/19 00:05:04;;;;;;;;;;;;;;;;;;2066896;28;19905;-80
2023/10/19 00:06:25;;;;;;;;;;;;;;;;;;2069546;28;19909;-83
2023/10/19 00:07:44;;;;;;;;;;;;;;;;;;2072140;28;19941;-81
2023/10/19 00:09:03;;;;;;;;;;;;;;;;;;2065581;28;20313;-81
2023/10/19 00:10:22;;;;;;;;;;;;;;;;;;2071396;28;19932;-80
2023/10/19 00:11:41;;;;;;;;;;;;;;;;;;2073426;28;19913;-81
2023/10/19 00:13:03;;;;;;;;;;;;;;;;;;2072582;28;19905;-80
2023/10/19 00:14:22;;;;;;;;;;;;;;;;;;2063069;28;20298;-82
2023/10/19 00:15:46;;;;;;;;;;;;;;;;;;2070413;28;19914;-82
2023/10/19 00:17:05;;;;;;;;;;;;;;;;;;2068263;28;19914;-81
2023/10/19 00:18:24;;;;;;;;;;;;;;;;;;2070452;28;19910;-82
2023/10/19 00:19:57;;;;;;;;;;;;;;;;;;2074186;28;19909;-80
2023/10/19 00:21:27;;;;;;;;;;;;;;;;;;2071412;28;19905;-80
2023/10/19 00:22:46;;;;;;;;;;;;;;;;;;2074367;28;19925;-81
2023/10/19 00:24:05;;;;;;;;;;;;;;;;;;2073759;28;19905;-81
2023/10/19 00:25:25;;;;;;;;;;;;;;;;;;2073216;28;19910;-81
2023/10/19 00:26:44;;;;;;;;;;;;;;;;;;2073912;28;20298;-82
2023/10/19 00:28:05;;;;;;;;;;;;;;;;;;2076587;28;20432;-82
2023/10/19 00:29:30;;;;;;;;;;;;;;;;;;2070803;28;19961;-83
2023/10/19 00:30:52;;;;;;;;;;;;;;;;;;2074170;28;20347;-80
2023/10/19 00:32:14;;;;;;;;;;;;;;;;;;2075755;28;19996;-80
2023/10/19 00:33:33;;;;;;;;;;;;;;;;;;2072503;28;20302;-81
2023/10/19 00:34:53;;;;;;;;;;;;;;;;;;2073880;28;19931;-81
2023/10/19 00:36:15;;;;;;;;;;;;;;;;;;2067987;28;19909;-80
2023/10/19 00:37:42;;;;;;;;;;;;;;;;;;2074820;28;19949;-80
2023/10/19 00:39:13;;;;;;;;;;;;;;;;;;2075783;28;19906;-80
2023/10/19 00:40:36;;;;;;;;;;;;;;;;;;2073845;28;19945;-81
2023/10/19 00:41:57;;;;;;;;;;;;;;;;;;2072549;28;20367;-80
2023/10/19 00:43:17;;;;;;;;;;;;;;;;;;2068766;28;20438;-81
2023/10/19 00:44:43;;;;;;;;;;;;;;;;;;2071783;28;19909;-82
2023/10/19 00:46:03;;;;;;;;;;;;;;;;;;2073006;28;19906;-81
2023/10/19 00:47:24;;;;;;;;;;;;;;;;;;2067232;28;19977;-81
2023/10/19 00:48:43;;;;;;;;;;;;;;;;;;2072308;28;19909;-81
2023/10/19 00:50:05;;;;;;;;;;;;;;;;;;2068555;28;20370;-80
2023/10/19 00:51:50;;;;;;;;;;;;;;;;;;2068918;28;19910;-80
2023/10/19 00:53:08;;;;;;;;;;;;;;;;;;2073992;28;19905;-80
2023/10/19 00:54:33;;;;;;;;;;;;;;;;;;2072174;28;19913;-82
2023/10/19 00:55:52;;;;;;;;;;;;;;;;;;2068162;28;20309;-80
2023/10/19 00:57:11;;;;;;;;;;;;;;;;;;2074223;28;19906;-80
2023/10/19 00:58:36;;;;;;;;;;;;;;;;;;2074658;28;20467;-80
2023/10/19 01:00:00;;;;;;;;;;;;;;;;;;2073657;28;19917;-80
2023/10/19 01:01:19;;;;;;;;;;;;;;;;;;2071245;28;20000;-80
2023/10/19 01:02:43;;;;;;;;;;;;;;;;;;2073463;28;19948;-80
2023/10/19 01:04:04;;;;;;;;;;;;;;;;;;2075970;28;19913;-80
2023/10/19 01:05:22;;;;;;;;;;;;;;;;;;2070930;28;19985;-81
2023/10/19 01:06:58;;;;;;;;;;;;;;;;;;2074073;28;19909;-79
2023/10/19 01:08:32;;;;;;;;;;;;;;;;;;2067192;28;19906;-80
2023/10/19 01:09:56;;;;;;;;;;;;;;;;;;2073384;28;19905;-80
2023/10/19 01:11:15;;;;;;;;;;;;;;;;;;2075798;28;19909;-80
2023/10/19 01:13:53;;;;;;;;;;;;;;;;;;2072515;28;19913;-81
2023/10/19 01:16:37;;;;;;;;;;;;;;;;;;2074395;28;19910;-79
2023/10/19 01:17:56;;;;;;;;;;;;;;;;;;2076725;28;19905;-80
2023/10/19 01:19:18;;;;;;;;;;;;;;;;;;2067560;28;19913;-80
2023/10/19 01:20:55;;;;;;;;;;;;;;;;;;2072087;28;19905;-81
2023/10/19 01:22:16;;;;;;;;;;;;;;;;;;2079255;28;20330;-79
2023/10/19 01:23:35;;;;;;;;;;;;;;;;;;2072717;28;20355;-79
2023/10/19 01:24:55;;;;;;;;;;;;;;;;;;2070104;28;19914;-80
2023/10/19 01:26:21;;;;;;;;;;;;;;;;;;2069931;28;19921;-80
2023/10/19 01:27:41;;;;;;;;;;;;;;;;;;2073314;28;19941;-79
2023/10/19 01:29:12;;;;;;;;;;;;;;;;;;2073654;28;19909;-80
2023/10/19 01:30:31;;;;;;;;;;;;;;;;;;2074827;28;19909;-80
2023/10/19 01:31:55;;;;;;;;;;;;;;;;;;2074519;28;19906;-80
2023/10/19 01:33:15;;;;;;;;;;;;;;;;;;2075921;28;20359;-81
2023/10/19 01:34:34;;;;;;;;;;;;;;;;;;2077601;28;19917;-82
2023/10/19 01:36:11;;;;;;;;;;;;;;;;;;2082541;28;19921;-82
2023/10/19 01:37:30;;;;;;;;;;;;;;;;;;2081743;28;19905;-82
2023/10/19 01:38:49;;;;;;;;;;;;;;;;;;2087606;28;19905;-82
2023/10/19 01:40:08;;;;;;;;;;;;;;;;;;2080105;28;19909;-82
2023/10/19 01:41:32;;;;;;;;;;;;;;;;;;2077062;28;19905;-80
2023/10/19 01:42:51;;;;;;;;;;;;;;;;;;2081418;28;19905;-81
2023/10/19 01:44:13;;;;;;;;;;;;;;;;;;2082106;28;19893;-82
2023/10/19 01:45:33;;;;;;;;;;;;;;;;;;2076780;28;20438;-81
2023/10/19 01:46:52;;;;;;;;;;;;;;;;;;2078118;28;19933;-81
2023/10/19 01:48:12;;;;;;;;;;;;;;;;;;2076202;28;19909;-82
2023/10/19 01:49:31;;;;;;;;;;;;;;;;;;2074809;28;19995;-82
2023/10/19 01:50:50;;;;;;;;;;;;;;;;;;2076091;28;19905;-81
2023/10/19 01:52:10;;;;;;;;;;;;;;;;;;2072415;28;19929;-80
2023/10/19 01:53:29;;;;;;;;;;;;;;;;;;2072441;28;19941;-81
2023/10/19 01:54:48;;;;;;;;;;;;;;;;;;2073395;28;20363;-81
2023/10/19 01:56:09;;;;;;;;;;;;;;;;;;2074292;28;19905;-80
2023/10/19 01:57:28;;;;;;;;;;;;;;;;;;2073467;28;19913;-81
2023/10/19 01:58:47;;;;;;;;;;;;;;;;;;2071080;28;19910;-82
2023/10/19 02:00:11;;;;;;;;;;;;;;;;;;2072912;28;19910;-81
2023/10/19 02:01:29;;;;;;;;;;;;;;;;;;2073827;28;19909;-81
2023/10/19 02:02:49;;;;;;;;;;;;;;;;;;2072990;28;20341;-81
2023/10/19 02:04:09;;;;;;;;;;;;;;;;;;2068006;28;19905;-82
2023/10/19 02:05:39;;;;;;;;;;;;;;;;;;2071889;28;19905;-80
2023/10/19 02:07:00;;;;;;;;;;;;;;;;;;2071299;28;20279;-81
2023/10/19 02:08:25;;;;;;;;;;;;;;;;;;2069745;28;19905;-82
2023/10/19 02:09:44;;;;;;;;;;;;;;;;;;2070982;28;19905;-83
2023/10/19 02:11:03;;;;;;;;;;;;;;;;;;2070574;28;19905;-83
2023/10/19 02:12:22;;;;;;;;;;;;;;;;;;2072075;28;19909;-84
2023/10/19 02:13:42;;;;;;;;;;;;;;;;;;2069555;28;19925;-84
2023/10/19 02:15:01;;;;;;;;;;;;;;;;;;2069460;28;19937;-83
2023/10/19 02:16:22;;;;;;;;;;;;;;;;;;2069951;28;19931;-84
2023/10/19 02:17:41;;;;;;;;;;;;;;;;;;2069804;28;19906;-83
2023/10/19 02:19:01;;;;;;;;;;;;;;;;;;2069694;28;19905;-84
2023/10/19 02:20:24;;;;;;;;;;;;;;;;;;2069796;28;19905;-83
2023/10/19 02:21:43;;;;;;;;;;;;;;;;;;2079456;28;20003;-82
2023/10/19 02:23:03;;;;;;;;;;;;;;;;;;2078061;28;20383;-83
2023/10/19 02:24:22;;;;;;;;;;;;;;;;;;2075018;28;19959;-83
2023/10/19 02:25:42;;;;;;;;;;;;;;;;;;2080733;28;19904;-83
2023/10/19 02:27:01;;;;;;;;;;;;;;;;;;2072529;28;19909;-83
2023/10/19 02:28:29;;;;;;;;;;;;;;;;;;2073364;28;19905;-83
2023/10/19 02:29:47;;;;;;;;;;;;;;;;;;2074399;28;19949;-83
2023/10/19 02:31:18;;;;;;;;;;;;;;;;;;2079254;28;19909;-83
2023/10/19 02:32:37;;;;;;;;;;;;;;;;;;2074746;28;19909;-83
2023/10/19 02:33:59;;;;;;;;;;;;;;;;;;2077284;28;19909;-82
2023/10/19 02:35:18;;;;;;;;;;;;;;;;;;2085028;28;19905;-82
2023/10/19 02:36:37;;;;;;;;;;;;;;;;;;2076567;28;19913;-82
2023/10/19 02:37:56;;;;;;;;;;;;;;;;;;2073938;28;19905;-83
2023/10/19 02:39:17;;;;;;;;;;;;;;;;;;2074543;28;19905;-82
2023/10/19 02:40:37;;;;;;;;;;;;;;;;;;2081133;28;19905;-82
2023/10/19 02:41:56;;;;;;;;;;;;;;;;;;2085475;28;19909;-83
2023/10/19 02:43:15;;;;;;;;;;;;;;;;;;2076573;28;19913;-82
2023/10/19 02:44:34;;;;;;;;;;;;;;;;;;2075089;28;19906;-83
2023/10/19 02:45:53;;;;;;;;;;;;;;;;;;2078895;28;19909;-82
2023/10/19 02:47:12;;;;;;;;;;;;;;;;;;2077510;28;19905;-83
2023/10/19 02:48:31;;;;;;;;;;;;;;;;;;2076069;28;20036;-82
2023/10/19 02:49:51;;;;;;;;;;;;;;;;;;2077271;28;19910;-83
2023/10/19 02:51:10;;;;;;;;;;;;;;;;;;2078170;28;19905;-83
2023/10/19 02:52:30;;;;;;;;;;;;;;;;;;2076931;28;19908;-83
2023/10/19 02:53:48;;;;;;;;;;;;;;;;;;2079634;28;19905;-81
2023/10/19 02:55:07;;;;;;;;;;;;;;;;;;2076225;28;20366;-81
2023/10/19 02:56:26;;;;;;;;;;;;;;;;;;2083044;28;20007;-82
2023/10/19 02:57:46;;;;;;;;;;;;;;;;;;2078309;28;19913;-82
2023/10/19 02:59:05;;;;;;;;;;;;;;;;;;2078314;28;19910;-82
2023/10/19 03:00:32;;;;;;;;;;;;;;;;;;2078253;28;20468;-82
2023/10/19 03:01:51;;;;;;;;;;;;;;;;;;2076100;28;19909;-83
2023/10/19 03:03:10;;;;;;;;;;;;;;;;;;2080687;28;20414;-83
2023/10/19 03:04:29;;;;;;;;;;;;;;;;;;2077373;28;19913;-83
2023/10/19 03:05:48;;;;;;;;;;;;;;;;;;2071389;28;19917;-83
2023/10/19 03:07:12;;;;;;;;;;;;;;;;;;2073278;28;19906;-83
2023/10/19 03:08:31;;;;;;;;;;;;;;;;;;2073868;28;19949;-82
2023/10/19 03:09:53;;;;;;;;;;;;;;;;;;2079333;28;19909;-83
2023/10/19 03:11:13;;;;;;;;;;;;;;;;;;2076156;28;19909;-83
2023/10/19 03:12:32;;;;;;;;;;;;;;;;;;2082639;28;19941;-82
2023/10/19 03:13:51;;;;;;;;;;;;;;;;;;2075975;28;20278;-83
2023/10/19 03:15:13;;;;;;;;;;;;;;;;;;2082412;28;19917;-83
2023/10/19 03:16:34;;;;;;;;;;;;;;;;;;2085648;28;20379;-83
2023/10/19 03:17:53;;;;;;;;;;;;;;;;;;2077706;28;19909;-82
2023/10/19 03:19:15;;;;;;;;;;;;;;;;;;2077233;28;19909;-83
2023/10/19 03:20:34;;;;;;;;;;;;;;;;;;2077357;28;19905;-83
2023/10/19 03:21:55;;;;;;;;;;;;;;;;;;2071241;28;20564;-83
2023/10/19 03:23:14;;;;;;;;;;;;;;;;;;2080066;28;19917;-83
2023/10/19 03:24:36;;;;;;;;;;;;;;;;;;2078789;28;19909;-83
2023/10/19 03:27:33;;;;;;;;;;;;;;;;;;2082127;28;19905;-83
2023/10/19 03:28:55;;;;;;;;;;;;;;;;;;2074804;28;19913;-82
2023/10/19 03:30:16;;;;;;;;;;;;;;;;;;2073898;28;19965;-82
2023/10/19 03:31:43;;;;;;;;;;;;;;;;;;2074518;28;20285;-83
2023/10/19 03:33:01;;;;;;;;;;;;;;;;;;2082934;28;19909;-83
2023/10/19 03:34:23;;;;;;;;;;;;;;;;;;2075767;28;19909;-82
2023/10/19 03:35:42;;;;;;;;;;;;;;;;;;2076231;28;19913;-83
2023/10/19 03:37:12;;;;;;;;;;;;;;;;;;2077307;28;19909;-84
2023/10/19 03:38:36;;;;;;;;;;;;;;;;;;2076644;28;19906;-83
2023/10/19 03:39:56;;;;;;;;;;;;;;;;;;2075531;28;19910;-84
2023/10/19 03:41:15;;;;;;;;;;;;;;;;;;2075563;28;19960;-83
2023/10/19 03:42:33;;;;;;;;;;;;;;;;;;2076576;28;19989;-83
2023/10/19 03:43:54;;;;;;;;;;;;;;;;;;2074659;28;19909;-83
2023/10/19 03:45:13;;;;;;;;;;;;;;;;;;2080080;28;19905;-82
2023/10/19 03:46:31;;;;;;;;;;;;;;;;;;2076361;28;20004;-83
2023/10/19 03:47:50;;;;;;;;;;;;;;;;;;2074247;28;20331;-83
2023/10/19 03:49:12;;;;;;;;;;;;;;;;;;2074627;28;20330;-83
2023/10/19 03:50:33;;;;;;;;;;;;;;;;;;2076528;28;19905;-83
2023/10/19 03:52:19;;;;;;;;;;;;;;;;;;2081773;28;19905;-83
2023/10/19 03:53:37;;;;;;;;;;;;;;;;;;2084721;28;19944;-82
2023/10/19 03:54:57;;;;;;;;;;;;;;;;;;2076326;28;19914;-82
2023/10/19 03:56:17;;;;;;;;;;;;;;;;;;2070400;28;19905;-83
2023/10/19 03:57:40;;;;;;;;;;;;;;;;;;2072057;28;19905;-83
2023/10/19 03:59:00;;;;;;;;;;;;;;;;;;2082017;28;19944;-82
2023/10/19 04:00:19;;;;;;;;;;;;;;;;;;2075089;28;19905;-83
2023/10/19 04:01:38;;;;;;;;;;;;;;;;;;2078506;28;19913;-83
2023/10/19 04:02:58;;;;;;;;;;;;;;;;;;2083610;28;19904;-83
2023/10/19 04:04:17;;;;;;;;;;;;;;;;;;2077427;28;19909;-82
2023/10/19 04:05:38;;;;;;;;;;;;;;;;;;2076203;28;20297;-83
2023/10/19 04:06:59;;;;;;;;;;;;;;;;;;2078825;28;20286;-82
2023/10/19 04:08:26;;;;;;;;;;;;;;;;;;2074625;28;19905;-82
2023/10/19 04:10:09;;;;;;;;;;;;;;;;;;2082702;28;19917;-82
2023/10/19 04:11:32;;;;;;;;;;;;;;;;;;2071632;28;19905;-82
2023/10/19 04:12:51;;;;;;;;;;;;;;;;;;2074567;28;19909;-82
2023/10/19 04:14:10;;;;;;;;;;;;;;;;;;2070446;28;19909;-82
2023/10/19 04:15:29;;;;;;;;;;;;;;;;;;2077810;28;19906;-82
2023/10/19 04:16:48;;;;;;;;;;;;;;;;;;2071136;28;19948;-82
2023/10/19 04:18:11;;;;;;;;;;;;;;;;;;2077456;28;19904;-82
2023/10/19 04:19:29;;;;;;;;;;;;;;;;;;2074659;28;19909;-82
2023/10/19 04:22:11;;;;;;;;;;;;;;;;;;2078532;28;19921;-82
2023/10/19 04:23:34;;;;;;;;;;;;;;;;;;2075950;28;20024;-82
2023/10/19 04:24:53;;;;;;;;;;;;;;;;;;2073495;28;19913;-83
2023/10/19 04:26:12;;;;;;;;;;;;;;;;;;2074731;28;19910;-83
2023/10/19 04:27:32;;;;;;;;;;;;;;;;;;2080539;28;19952;-84
2023/10/19 04:28:51;;;;;;;;;;;;;;;;;;2074403;28;20382;-81
2023/10/19 04:30:15;;;;;;;;;;;;;;;;;;2073827;28;19905;-81
2023/10/19 04:31:36;;;;;;;;;;;;;;;;;;2075515;28;19905;-82
2023/10/19 04:32:57;;;;;;;;;;;;;;;;;;2071613;28;20374;-81
2023/10/19 04:34:20;;;;;;;;;;;;;;;;;;2080063;28;19908;-82
2023/10/19 04:35:41;;;;;;;;;;;;;;;;;;2073817;28;19909;-81
2023/10/19 04:37:03;;;;;;;;;;;;;;;;;;2073783;28;19956;-81
2023/10/19 04:38:22;;;;;;;;;;;;;;;;;;2076623;28;19962;-80
2023/10/19 04:39:41;;;;;;;;;;;;;;;;;;2082497;28;20000;-80
2023/10/19 04:41:00;;;;;;;;;;;;;;;;;;2083649;28;19905;-79
2023/10/19 04:42:22;;;;;;;;;;;;;;;;;;2075051;28;20343;-79
2023/10/19 04:43:43;;;;;;;;;;;;;;;;;;2080185;28;19913;-82
2023/10/19 04:45:01;;;;;;;;;;;;;;;;;;2074418;28;19944;-81
2023/10/19 04:46:20;;;;;;;;;;;;;;;;;;2073036;28;20390;-83
2023/10/19 04:47:40;;;;;;;;;;;;;;;;;;2078924;28;19909;-82
2023/10/19 04:48:59;;;;;;;;;;;;;;;;;;2079657;28;20300;-83
2023/10/19 04:50:18;;;;;;;;;;;;;;;;;;2074823;28;19905;-84
2023/10/19 04:51:38;;;;;;;;;;;;;;;;;;2079733;28;20354;-82
2023/10/19 04:52:57;;;;;;;;;;;;;;;;;;2073815;28;19909;-82
2023/10/19 04:54:17;;;;;;;;;;;;;;;;;;2072231;28;19909;-76
2023/10/19 04:55:36;;;;;;;;;;;;;;;;;;2078281;28;19913;-78
2023/10/19 04:56:55;;;;;;;;;;;;;;;;;;2083130;28;19932;-83
2023/10/19 04:58:14;;;;;;;;;;;;;;;;;;2080679;28;19905;-80
2023/10/19 04:59:33;;;;;;;;;;;;;;;;;;2073422;28;19913;-79
2023/10/19 05:00:53;;;;;;;;;;;;;;;;;;2076518;28;20001;-80
2023/10/19 05:02:11;;;;;;;;;;;;;;;;;;2082692;28;20342;-80
2023/10/19 05:03:31;;;;;;;;;;;;;;;;;;2081747;28;19908;-80
2023/10/19 05:04:50;;;;;;;;;;;;;;;;;;2075724;28;19909;-80
2023/10/19 05:06:12;;;;;;;;;;;;;;;;;;2076427;28;19905;-81
2023/10/19 05:07:31;;;;;;;;;;;;;;;;;;2071177;28;20359;-80
2023/10/19 05:08:49;;;;;;;;;;;;;;;;;;2081169;28;19909;-78
2023/10/19 05:10:08;;;;;;;;;;;;;;;;;;2077205;28;19909;-79
2023/10/19 05:11:28;;;;;;;;;;;;;;;;;;2074255;28;19905;-79
2023/10/19 05:12:47;;;;;;;;;;;;;;;;;;2078348;28;19909;-83
2023/10/19 05:14:06;;;;;;;;;;;;;;;;;;2081954;28;19921;-80
2023/10/19 05:15:25;;;;;;;;;;;;;;;;;;2080947;28;19905;-82
2023/10/19 05:16:44;;;;;;;;;;;;;;;;;;2091010;28;19916;-79
2023/10/19 05:18:04;;;;;;;;;;;;;;;;;;2094235;28;19905;-80
2023/10/19 05:19:23;;;;;;;;;;;;;;;;;;2088980;28;19905;-79
2023/10/19 05:20:43;;;;;;;;;;;;;;;;;;2087306;28;19912;-78
2023/10/19 05:22:02;;;;;;;;;;;;;;;;;;2089316;28;19953;-79
2023/10/19 05:23:21;;;;;;;;;;;;;;;;;;2081050;28;19909;-82
2023/10/19 05:24:40;;;;;;;;;;;;;;;;;;2074267;28;19980;-80
2023/10/19 05:25:59;;;;;;;;;;;;;;;;;;2081844;28;19913;-81
2023/10/19 05:27:19;;;;;;;;;;;;;;;;;;2086767;28;19996;-79
2023/10/19 05:28:38;;;;;;;;;;;;;;;;;;2076385;28;19999;-79
2023/10/19 05:29:57;;;;;;;;;;;;;;;;;;2081040;28;19913;-81
2023/10/19 05:31:16;;;;;;;;;;;;;;;;;;2077482;28;19905;-82
2023/10/19 05:32:35;;;;;;;;;;;;;;;;;;2069687;28;19956;-80
2023/10/19 05:33:53;;;;;;;;;;;;;;;;;;2072729;28;19913;-79
2023/10/19 05:35:18;;;;;;;;;;;;;;;;;;2081992;28;21333;-77
2023/10/19 05:36:39;;;;;;;;;;;;;;;;;;2077172;28;19905;-83
2023/10/19 05:37:58;;;;;;;;;;;;;;;;;;2077589;28;19917;-82
2023/10/19 05:39:17;;;;;;;;;;;;;;;;;;2080890;28;19913;-81
2023/10/19 05:40:36;;;;;;;;;;;;;;;;;;2076865;28;19909;-80
2023/10/19 05:41:55;;;;;;;;;;;;;;;;;;2072501;28;19914;-80
2023/10/19 05:43:14;;;;;;;;;;;;;;;;;;2074554;28;20387;-83
2023/10/19 05:44:33;;;;;;;;;;;;;;;;;;2079103;28;19975;-82
2023/10/19 05:45:52;;;;;;;;;;;;;;;;;;2075130;28;19905;-82
2023/10/19 05:47:10;;;;;;;;;;;;;;;;;;2078656;28;19905;-82
2023/10/19 05:48:45;;;;;;;;;;;;;;;;;;2075661;28;19921;-82
2023/10/19 05:50:04;;;;;;;;;;;;;;;;;;2075914;28;20337;-81
2023/10/19 05:51:23;;;;;;;;;;;;;;;;;;2076028;28;20323;-80
2023/10/19 05:52:42;;;;;;;;;;;;;;;;;;2078921;28;19905;-80
2023/10/19 05:54:03;;;;;;;;;;;;;;;;;;2075077;28;19988;-78
2023/10/19 05:55:25;;;;;;;;;;;;;;;;;;2073923;28;20358;-81
2023/10/19 05:56:45;;;;;;;;;;;;;;;;;;2077447;28;20161;-80
2023/10/19 05:58:04;;;;;;;;;;;;;;;;;;2083638;28;19952;-77
2023/10/19 05:59:26;;;;;;;;;;;;;;;;;;2075114;28;19969;-80
2023/10/19 06:00:45;;;;;;;;;;;;;;;;;;2078562;28;19909;-79
2023/10/19 06:02:07;;;;;;;;;;;;;;;;;;2075251;28;19973;-79
2023/10/19 06:03:26;;;;;;;;;;;;;;;;;;2072413;28;20044;-79
2023/10/19 06:04:46;;;;;;;;;;;;;;;;;;2078432;28;19909;-80
2023/10/19 06:06:05;;;;;;;;;;;;;;;;;;2082929;28;19905;-78
2023/10/19 06:07:24;;;;;;;;;;;;;;;;;;2076095;28;20321;-78
2023/10/19 06:08:43;;;;;;;;;;;;;;;;;;2073444;28;19909;-78
2023/10/19 06:10:06;;;;;;;;;;;;;;;;;;2070650;28;19957;-79
2023/10/19 06:11:25;;;;;;;;;;;;;;;;;;2072176;28;19909;-78
2023/10/19 06:12:44;;;;;;;;;;;;;;;;;;2072788;28;19909;-78
2023/10/19 06:14:03;;;;;;;;;;;;;;;;;;2077400;28;19905;-79
2023/10/19 06:15:24;;;;;;;;;;;;;;;;;;2080996;28;19913;-79
2023/10/19 06:16:43;;;;;;;;;;;;;;;;;;2081116;28;20278;-79
2023/10/19 06:18:03;;;;;;;;;;;;;;;;;;2081137;28;20354;-79
2023/10/19 06:19:22;;;;;;;;;;;;;;;;;;2081015;28;19912;-80
2023/10/19 06:20:42;;;;;;;;;;;;;;;;;;2077235;28;19905;-82
2023/10/19 06:22:00;;;;;;;;;;;;;;;;;;2071148;28;19913;-78
2023/10/19 06:23:19;;;;;;;;;;;;;;;;;;2066236;28;19945;-81
2023/10/19 06:24:38;;;;;;;;;;;;;;;;;;2064042;28;19909;-80
2023/10/19 06:25:57;;;;;;;;;;;;;;;;;;2064661;28;19917;-80
2023/10/19 06:27:16;;;;;;;;;;;;;;;;;;2070921;28;19905;-80
2023/10/19 06:28:38;;;;;;;;;;;;;;;;;;2072161;28;20358;-82
2023/10/19 06:29:57;;;;;;;;;;;;;;;;;;2065265;28;19906;-80
2023/10/19 06:31:16;;;;;;;;;;;;;;;;;;2069389;28;19905;-80
2023/10/19 06:32:35;;;;;;;;;;;;;;;;;;2067328;28;20290;-79
2023/10/19 06:33:53;;;;;;;;;;;;;;;;;;2069509;28;19909;-79
2023/10/19 06:35:12;;;;;;;;;;;;;;;;;;2071773;28;19996;-79
2023/10/19 06:36:31;;;;;;;;;;;;;;;;;;2071943;28;19953;-79
2023/10/19 06:37:50;;;;;;;;;;;;;;;;;;2072154;28;20302;-79
2023/10/19 06:39:09;;;;;;;;;;;;;;;;;;2072446;28;19906;-80
2023/10/19 06:40:28;;;;;;;;;;;;;;;;;;2066789;28;19906;-81
2023/10/19 06:41:46;;;;;;;;;;;;;;;;;;2069847;28;19980;-82
2023/10/19 06:43:06;;;;;;;;;;;;;;;;;;2067074;28;19910;-80
2023/10/19 06:44:24;;;;;;;;;;;;;;;;;;2065115;28;19913;-83
2023/10/19 06:45:44;;;;;;;;;;;;;;;;;;2060605;28;20351;-78
2023/10/19 06:47:03;;;;;;;;;;;;;;;;;;2070752;28;19917;-81
2023/10/19 06:48:22;;;;;;;;;;;;;;;;;;2066181;28;20551;-80
2023/10/19 06:49:41;;;;;;;;;;;;;;;;;;2066583;28;19905;-80
2023/10/19 06:51:00;;;;;;;;;;;;;;;;;;2059836;28;20393;-80
2023/10/19 06:52:19;;;;;;;;;;;;;;;;;;2060685;28;20295;-79
2023/10/19 06:53:37;;;;;;;;;;;;;;;;;;2062825;28;19905;-79
2023/10/19 06:54:56;;;;;;;;;;;;;;;;;;2063992;28;20000;-80
2023/10/19 06:56:15;;;;;;;;;;;;;;;;;;2070649;28;19909;-80
2023/10/19 06:57:34;;;;;;;;;;;;;;;;;;2072102;28;20074;-79
2023/10/19 06:58:53;;;;;;;;;;;;;;;;;;2072433;28;20351;-79
2023/10/19 07:00:16;;;;;;;;;;;;;;;;;;2064816;28;19985;-78
2023/10/19 07:01:36;;;;;;;;;;;;;;;;;;2069211;28;19996;-77
2023/10/19 07:02:55;;;;;;;;;;;;;;;;;;2070073;28;19905;-77
2023/10/19 07:04:13;;;;;;;;;;;;;;;;;;2067710;28;19910;-79
2023/10/19 07:05:32;;;;;;;;;;;;;;;;;;2066255;28;20286;-78
2023/10/19 07:06:51;;;;;;;;;;;;;;;;;;2064086;28;19910;-78
2023/10/19 07:08:10;;;;;;;;;;;;;;;;;;2068419;28;19905;-78
2023/10/19 07:09:29;;;;;;;;;;;;;;;;;;2071999;28;19922;-77
2023/10/19 07:10:49;;;;;;;;;;;;;;;;;;2071150;28;20465;-77
2023/10/19 07:12:08;;;;;;;;;;;;;;;;;;2067975;28;19905;-79
2023/10/19 07:13:33;;;;;;;;;;;;;;;;;;2069248;28;19909;-82
2023/10/19 07:14:52;;;;;;;;;;;;;;;;;;2068001;28;19982;-82
2023/10/19 07:16:11;;;;;;;;;;;;;;;;;;2063050;28;20327;-80
2023/10/19 07:17:30;;;;;;;;;;;;;;;;;;2061492;28;19910;-80
2023/10/19 07:18:49;;;;;;;;;;;;;;;;;;2064459;28;19909;-82
2023/10/19 07:20:09;;;;;;;;;;;;;;;;;;2061948;28;19906;-83
2023/10/19 07:21:31;;;;;;;;;;;;;;;;;;2062939;28;19910;-82
2023/10/19 07:22:51;;;;;;;;;;;;;;;;;;2071322;28;19921;-82
2023/10/19 07:24:11;;;;;;;;;;;;;;;;;;2068206;28;20371;-82
2023/10/19 07:25:31;;;;;;;;;;;;;;;;;;2065187;28;19905;-82
2023/10/19 07:27:04;;;;;;;;;;;;;;;;;;2063378;28;19905;-81
2023/10/19 07:28:32;;;;;;;;;;;;;;;;;;2064817;28;20236;-81
2023/10/19 07:29:51;;;;;;;;;;;;;;;;;;2062147;28;20367;-84
2023/10/19 07:31:15;;;;;;;;;;;;;;;;;;2062764;28;19910;-82
2023/10/19 07:32:34;;;;;;;;;;;;;;;;;;2070271;28;19913;-82
2023/10/19 07:33:55;;;;;;;;;;;;;;;;;;2067015;28;20330;-81
2023/10/19 07:35:14;;;;;;;;;;;;;;;;;;2063430;28;19909;-81
2023/10/19 07:36:35;;;;;;;;;;;;;;;;;;2069868;28;20302;-81
2023/10/19 07:37:54;;;;;;;;;;;;;;;;;;2071256;28;19910;-83
2023/10/19 07:39:18;;;;;;;;;;;;;;;;;;2073159;28;20313;-81
2023/10/19 07:40:37;;;;;;;;;;;;;;;;;;2065663;28;19965;-80
2023/10/19 07:41:56;;;;;;;;;;;;;;;;;;2066192;28;20395;-80
2023/10/19 07:43:15;;;;;;;;;;;;;;;;;;2068971;28;19914;-81
2023/10/19 07:44:34;;;;;;;;;;;;;;;;;;2065296;28;21437;-81
2023/10/19 07:45:53;;;;;;;;;;;;;;;;;;2063862;28;19914;-80
2023/10/19 07:47:12;;;;;;;;;;;;;;;;;;2060499;28;20395;-80
2023/10/19 07:48:31;;;;;;;;;;;;;;;;;;2060658;28;19945;-83
2023/10/19 07:49:52;;;;;;;;;;;;;;;;;;2070252;28;19909;-83
2023/10/19 07:51:11;;;;;;;;;;;;;;;;;;2067604;28;19906;-83
2023/10/19 07:52:29;;;;;;;;;;;;;;;;;;2071089;28;19913;-82
2023/10/19 07:53:48;;;;;;;;;;;;;;;;;;2073501;28;19909;-82
2023/10/19 07:55:07;;;;;;;;;;;;;;;;;;2065809;28;19914;-81
2023/10/19 07:56:28;;;;;;;;;;;;;;;;;;2064130;28;19906;-81
2023/10/19 07:57:48;;;;;;;;;;;;;;;;;;2068032;28;20378;-81
2023/10/19 07:59:08;;;;;;;;;;;;;;;;;;2062460;28;19914;-82
2023/10/19 08:00:29;;;;;;;;;;;;;;;;;;2069714;28;19953;-81
2023/10/19 08:01:48;;;;;;;;;;;;;;;;;;2065167;28;19912;-81
2023/10/19 08:03:08;;;;;;;;;;;;;;;;;;2069830;28;19910;-82
2023/10/19 08:04:31;;;;;;;;;;;;;;;;;;2067860;28;19905;-86
2023/10/19 08:05:50;;;;;;;;;;;;;;;;;;2063706;28;19988;-83
2023/10/19 08:07:10;;;;;;;;;;;;;;;;;;2068138;28;20317;-82
2023/10/19 08:08:34;;;;;;;;;;;;;;;;;;2066004;28;19914;-81
2023/10/19 08:09:53;;;;;;;;;;;;;;;;;;2069546;28;19905;-86
2023/10/19 08:11:12;;;;;;;;;;;;;;;;;;2067651;28;19914;-86
2023/10/19 08:12:33;;;;;;;;;;;;;;;;;;2067704;28;19909;-91
2023/10/19 08:13:52;;;;;;;;;;;;;;;;;;2067366;28;19913;-86
2023/10/19 08:15:11;;;;;;;;;;;;;;;;;;2061907;28;20398;-87
2023/10/19 08:16:30;;;;;;;;;;;;;;;;;;2069598;28;19914;-87
2023/10/19 08:17:49;;;;;;;;;;;;;;;;;;2072962;28;19906;-83
2023/10/19 08:19:08;;;;;;;;;;;;;;;;;;2065073;28;19909;-83
2023/10/19 08:20:30;;;;;;;;;;;;;;;;;;2064383;28;19909;-85
2023/10/19 08:21:52;;;;;;;;;;;;;;;;;;2067072;28;20362;-87
2023/10/19 08:23:11;;;;;;;;;;;;;;;;;;2075741;28;19910;-86
2023/10/19 08:24:30;;;;;;;;;;;;;;;;;;2080850;28;19983;-84
2023/10/19 08:25:50;;;;;;;;;;;;;;;;;;2073320;28;19913;-83
2023/10/19 08:27:10;;;;;;;;;;;;;;;;;;2075438;28;20346;-87
2023/10/19 08:28:29;;;;;;;;;;;;;;;;;;2074328;28;19989;-87
2023/10/19 08:29:48;;;;;;;;;;;;;;;;;;2072236;28;20286;-85
2023/10/19 08:31:10;;;;;;;;;;;;;;;;;;2071515;28;19905;-83
2023/10/19 08:32:29;;;;;;;;;;;;;;;;;;2072435;28;20375;-83
2023/10/19 08:33:47;;;;;;;;;;;;;;;;;;2069849;28;20024;-84
2023/10/19 08:35:06;;;;;;;;;;;;;;;;;;2079402;28;21011;-87
2023/10/19 08:36:26;;;;;;;;;;;;;;;;;;2076083;28;19913;-83
2023/10/19 08:37:46;;;;;;;;;;;;;;;;;;2076295;28;19909;-85
2023/10/19 08:39:05;;;;;;;;;;;;;;;;;;2077823;28;19915;-89
2023/10/19 08:40:24;;;;;;;;;;;;;;;;;;2076206;28;19920;-88
2023/10/19 08:41:43;;;;;;;;;;;;;;;;;;2072792;28;19909;-85
2023/10/19 08:43:02;;;;;;;;;;;;;;;;;;2080380;28;19905;-85
2023/10/19 08:44:20;;;;;;;;;;;;;;;;;;2074379;28;20287;-86
2023/10/19 08:45:39;;;;;;;;;;;;;;;;;;2080598;28;19939;-85
2023/10/19 08:46:59;;;;;;;;;;;;;;;;;;2077295;28;19948;-88
2023/10/19 08:48:18;;;;;;;;;;;;;;;;;;2079769;28;19905;-85
2023/10/19 08:49:37;;;;;;;;;;;;;;;;;;2079105;28;19914;-84
2023/10/19 08:50:56;;;;;;;;;;;;;;;;;;2083529;28;19973;-82
2023/10/19 08:52:15;;;;;;;;;;;;;;;;;;2084505;28;19941;-83
2023/10/19 08:53:39;;;;;;;;;;;;;;;;;;2090711;28;19968;-84
2023/10/19 08:54:58;;;;;;;;;;;;;;;;;;2087149;28;19913;-86
2023/10/19 08:56:17;;;;;;;;;;;;;;;;;;2087803;28;19945;-87
2023/10/19 08:57:37;;;;;;;;;;;;;;;;;;2086379;28;19905;-85
2023/10/19 08:58:55;;;;;;;;;;;;;;;;;;2093847;28;19968;-91
2023/10/19 09:00:24;;;;;;;;;;;;;;;;;;2083556;28;19941;-88
2023/10/19 09:01:46;;;;;;;;;;;;;;;;;;2084591;28;20288;-87
2023/10/19 09:03:05;;;;;;;;;;;;;;;;;;2079232;28;19905;-86
2023/10/19 09:04:25;;;;;;;;;;;;;;;;;;2085095;28;19909;-88
2023/10/19 09:05:46;;;;;;;;;;;;;;;;;;2086188;28;19909;-88
2023/10/19 09:07:10;;;;;;;;;;;;;;;;;;2080247;28;19909;-87
2023/10/19 09:08:38;;;;;;;;;;;;;;;;;;2080371;28;20366;-88
2023/10/19 09:09:59;;;;;;;;;;;;;;;;;;2076401;28;19989;-87
2023/10/19 09:11:21;;;;;;;;;;;;;;;;;;2080318;28;19905;-88
2023/10/19 09:12:46;;;;;;;;;;;;;;;;;;2077349;28;20337;-88
2023/10/19 09:14:06;;;;;;;;;;;;;;;;;;2084920;28;19912;-89
2023/10/19 09:15:35;;;;;;;;;;;;;;;;;;2078088;28;19905;-89
2023/10/19 09:16:57;;;;;;;;;;;;;;;;;;2074672;28;19962;-86